sensor_id;sensor_type;location;lat;lon;timestamp;P1;durP1;ratioP1;P2;durP2;ratioP2
20084;SDS011;10202;48.474;9.138;2024-01-30T00:00:33;10.53;;;6.17;;
20084;SDS011;10202;48.474;9.138;2024-01-30T00:02:59;9.03;;;5.43;;
20084;SDS011;10202;48.474;9.138;2024-01-30T00:05:32;9.43;;;5.70;;
20084;SDS011;10202;48.474;9.138;2024-01-30T00:07:58;11.53;;;6.07;;
20084;SDS011;10202;48.474;9.138;2024-01-30T00:10:26;9.90;;;5.40;;
20084;SDS011;10202;48.474;9.138;2024-01-30T00:12:54;8.97;;;5.70;;
20084;SDS011;10202;48.474;9.138;2024-01-30T00:15:24;9.23;;;5.57;;
20084;SDS011;10202;48.474;9.138;2024-01-30T00:17:50;13.83;;;7.07;;
20084;SDS011;10202;48.474;9.138;2024-01-30T00:20:17;9.73;;;5.27;;
20084;SDS011;10202;48.474;9.138;2024-01-30T00:22:47;9.93;;;5.50;;
20084;SDS011;10202;48.474;9.138;2024-01-30T00:25:12;12.80;;;5.80;;
20084;SDS011;10202;48.474;9.138;2024-01-30T00:27:40;11.47;;;5.50;;
20084;SDS011;10202;48.474;9.138;2024-01-30T00:30:08;7.20;;;5.00;;
20084;SDS011;10202;48.474;9.138;2024-01-30T00:32:37;8.50;;;5.20;;
20084;SDS011;10202;48.474;9.138;2024-01-30T00:35:02;13.43;;;5.87;;
20084;SDS011;10202;48.474;9.138;2024-01-30T00:37:28;9.37;;;5.93;;
20084;SDS011;10202;48.474;9.138;2024-01-30T00:39:54;9.23;;;5.50;;
20084;SDS011;10202;48.474;9.138;2024-01-30T00:42:22;9.77;;;5.50;;
20084;SDS011;10202;48.474;9.138;2024-01-30T00:44:52;10.70;;;5.20;;
20084;SDS011;10202;48.474;9.138;2024-01-30T00:47:20;9.20;;;5.07;;
20084;SDS011;10202;48.474;9.138;2024-01-30T00:49:45;9.03;;;5.63;;
20084;SDS011;10202;48.474;9.138;2024-01-30T00:52:11;9.60;;;5.60;;
20084;SDS011;10202;48.474;9.138;2024-01-30T00:54:37;8.67;;;4.93;;
20084;SDS011;10202;48.474;9.138;2024-01-30T00:57:05;10.67;;;4.97;;
20084;SDS011;10202;48.474;9.138;2024-01-30T00:59:33;9.77;;;4.97;;
20084;SDS011;10202;48.474;9.138;2024-01-30T01:01:58;7.47;;;4.97;;
20084;SDS011;10202;48.474;9.138;2024-01-30T01:04:27;9.73;;;5.33;;
20084;SDS011;10202;48.474;9.138;2024-01-30T01:06:54;15.73;;;7.23;;
20084;SDS011;10202;48.474;9.138;2024-01-30T01:09:25;15.63;;;7.63;;
20084;SDS011;10202;48.474;9.138;2024-01-30T01:11:50;14.37;;;6.43;;
20084;SDS011;10202;48.474;9.138;2024-01-30T01:14:16;12.87;;;6.47;;
20084;SDS011;10202;48.474;9.138;2024-01-30T01:16:44;10.10;;;5.60;;
20084;SDS011;10202;48.474;9.138;2024-01-30T01:19:12;9.50;;;5.50;;
20084;SDS011;10202;48.474;9.138;2024-01-30T01:21:39;10.20;;;5.57;;
20084;SDS011;10202;48.474;9.138;2024-01-30T01:24:07;10.60;;;5.67;;
20084;SDS011;10202;48.474;9.138;2024-01-30T01:26:33;8.60;;;4.80;;
20084;SDS011;10202;48.474;9.138;2024-01-30T01:29:03;6.77;;;4.23;;
20084;SDS011;10202;48.474;9.138;2024-01-30T01:31:38;9.53;;;4.87;;
20084;SDS011;10202;48.474;9.138;2024-01-30T01:34:12;7.27;;;3.90;;
20084;SDS011;10202;48.474;9.138;2024-01-30T01:36:43;5.43;;;3.93;;
20084;SDS011;10202;48.474;9.138;2024-01-30T01:39:13;5.83;;;3.70;;
20084;SDS011;10202;48.474;9.138;2024-01-30T01:41:39;8.07;;;4.17;;
20084;SDS011;10202;48.474;9.138;2024-01-30T01:44:07;8.13;;;4.03;;
20084;SDS011;10202;48.474;9.138;2024-01-30T01:46:34;6.03;;;3.60;;
20084;SDS011;10202;48.474;9.138;2024-01-30T01:49:02;6.17;;;3.90;;
20084;SDS011;10202;48.474;9.138;2024-01-30T01:51:33;5.17;;;3.43;;
20084;SDS011;10202;48.474;9.138;2024-01-30T01:54:03;5.60;;;3.53;;
20084;SDS011;10202;48.474;9.138;2024-01-30T01:56:32;6.97;;;3.83;;
20084;SDS011;10202;48.474;9.138;2024-01-30T01:59:05;7.27;;;3.50;;
20084;SDS011;10202;48.474;9.138;2024-01-30T02:01:36;6.13;;;3.90;;
20084;SDS011;10202;48.474;9.138;2024-01-30T02:04:05;5.27;;;3.70;;
20084;SDS011;10202;48.474;9.138;2024-01-30T02:06:33;7.53;;;3.70;;
20084;SDS011;10202;48.474;9.138;2024-01-30T02:09:02;5.67;;;3.67;;
20084;SDS011;10202;48.474;9.138;2024-01-30T02:11:29;4.63;;;3.27;;
20084;SDS011;10202;48.474;9.138;2024-01-30T02:13:55;6.07;;;3.83;;
20084;SDS011;10202;48.474;9.138;2024-01-30T02:16:23;6.50;;;3.80;;
20084;SDS011;10202;48.474;9.138;2024-01-30T02:18:51;6.90;;;3.90;;
20084;SDS011;10202;48.474;9.138;2024-01-30T02:21:21;6.07;;;3.63;;
20084;SDS011;10202;48.474;9.138;2024-01-30T02:23:49;6.20;;;3.60;;
20084;SDS011;10202;48.474;9.138;2024-01-30T02:26:16;6.60;;;4.23;;
20084;SDS011;10202;48.474;9.138;2024-01-30T02:28:41;5.80;;;3.93;;
20084;SDS011;10202;48.474;9.138;2024-01-30T02:31:09;6.00;;;4.00;;
20084;SDS011;10202;48.474;9.138;2024-01-30T02:33:37;7.63;;;4.33;;
20084;SDS011;10202;48.474;9.138;2024-01-30T02:36:06;6.73;;;3.80;;
20084;SDS011;10202;48.474;9.138;2024-01-30T02:38:32;7.47;;;4.40;;
20084;SDS011;10202;48.474;9.138;2024-01-30T02:40:59;7.57;;;4.53;;
20084;SDS011;10202;48.474;9.138;2024-01-30T02:43:30;6.50;;;4.33;;
20084;SDS011;10202;48.474;9.138;2024-01-30T02:45:55;8.17;;;4.67;;
20084;SDS011;10202;48.474;9.138;2024-01-30T02:48:21;10.57;;;4.97;;
20084;SDS011;10202;48.474;9.138;2024-01-30T02:50:46;10.17;;;5.00;;
20084;SDS011;10202;48.474;9.138;2024-01-30T02:53:14;7.33;;;4.70;;
20084;SDS011;10202;48.474;9.138;2024-01-30T02:55:42;7.70;;;4.87;;
20084;SDS011;10202;48.474;9.138;2024-01-30T02:58:07;11.53;;;5.00;;
20084;SDS011;10202;48.474;9.138;2024-01-30T03:00:33;10.97;;;4.73;;
20084;SDS011;10202;48.474;9.138;2024-01-30T03:03:01;7.40;;;4.53;;
20084;SDS011;10202;48.474;9.138;2024-01-30T03:05:32;9.70;;;4.90;;
20084;SDS011;10202;48.474;9.138;2024-01-30T03:08:00;8.43;;;4.87;;
20084;SDS011;10202;48.474;9.138;2024-01-30T03:10:26;5.30;;;3.93;;
20084;SDS011;10202;48.474;9.138;2024-01-30T03:12:54;8.03;;;4.60;;
20084;SDS011;10202;48.474;9.138;2024-01-30T03:15:25;9.33;;;4.93;;
20084;SDS011;10202;48.474;9.138;2024-01-30T03:17:53;7.73;;;4.70;;
20084;SDS011;10202;48.474;9.138;2024-01-30T03:20:23;8.83;;;4.63;;
20084;SDS011;10202;48.474;9.138;2024-01-30T03:22:51;9.53;;;4.90;;
20084;SDS011;10202;48.474;9.138;2024-01-30T03:25:19;6.83;;;4.60;;
20084;SDS011;10202;48.474;9.138;2024-01-30T03:27:45;6.93;;;4.57;;
20084;SDS011;10202;48.474;9.138;2024-01-30T03:30:12;7.33;;;4.50;;
20084;SDS011;10202;48.474;9.138;2024-01-30T03:32:41;7.13;;;4.40;;
20084;SDS011;10202;48.474;9.138;2024-01-30T03:35:07;7.53;;;4.17;;
20084;SDS011;10202;48.474;9.138;2024-01-30T03:37:37;8.03;;;4.13;;
20084;SDS011;10202;48.474;9.138;2024-01-30T03:40:05;6.57;;;3.87;;
20084;SDS011;10202;48.474;9.138;2024-01-30T03:42:31;5.27;;;3.60;;
20084;SDS011;10202;48.474;9.138;2024-01-30T03:45:02;3.63;;;3.00;;
20084;SDS011;10202;48.474;9.138;2024-01-30T03:47:35;5.73;;;3.00;;
20084;SDS011;10202;48.474;9.138;2024-01-30T03:50:03;8.03;;;3.33;;
20084;SDS011;10202;48.474;9.138;2024-01-30T03:52:31;5.50;;;3.50;;
20084;SDS011;10202;48.474;9.138;2024-01-30T03:54:59;6.63;;;4.00;;
20084;SDS011;10202;48.474;9.138;2024-01-30T03:57:28;6.20;;;3.87;;
20084;SDS011;10202;48.474;9.138;2024-01-30T03:59:56;6.00;;;3.53;;
20084;SDS011;10202;48.474;9.138;2024-01-30T04:02:22;5.60;;;3.43;;
20084;SDS011;10202;48.474;9.138;2024-01-30T04:04:47;6.63;;;3.67;;
20084;SDS011;10202;48.474;9.138;2024-01-30T04:07:15;4.57;;;3.43;;
20084;SDS011;10202;48.474;9.138;2024-01-30T04:09:45;5.90;;;3.40;;
20084;SDS011;10202;48.474;9.138;2024-01-30T04:12:11;5.43;;;3.50;;
20084;SDS011;10202;48.474;9.138;2024-01-30T04:14:37;5.20;;;3.30;;
20084;SDS011;10202;48.474;9.138;2024-01-30T04:17:06;10.13;;;3.87;;
20084;SDS011;10202;48.474;9.138;2024-01-30T04:19:31;9.37;;;4.40;;
20084;SDS011;10202;48.474;9.138;2024-01-30T04:21:57;5.63;;;3.80;;
20084;SDS011;10202;48.474;9.138;2024-01-30T04:24:25;6.80;;;4.20;;
20084;SDS011;10202;48.474;9.138;2024-01-30T04:26:51;8.93;;;4.80;;
20084;SDS011;10202;48.474;9.138;2024-01-30T04:29:16;9.20;;;4.57;;
20084;SDS011;10202;48.474;9.138;2024-01-30T04:31:47;11.53;;;4.80;;
20084;SDS011;10202;48.474;9.138;2024-01-30T04:34:13;11.30;;;4.40;;
20084;SDS011;10202;48.474;9.138;2024-01-30T04:36:43;12.87;;;5.63;;
20084;SDS011;10202;48.474;9.138;2024-01-30T04:39:11;11.90;;;5.63;;
20084;SDS011;10202;48.474;9.138;2024-01-30T04:41:42;10.77;;;6.33;;
20084;SDS011;10202;48.474;9.138;2024-01-30T04:44:14;10.60;;;6.60;;
20084;SDS011;10202;48.474;9.138;2024-01-30T04:46:42;10.53;;;6.43;;
20084;SDS011;10202;48.474;9.138;2024-01-30T04:49:08;10.43;;;6.53;;
20084;SDS011;10202;48.474;9.138;2024-01-30T04:51:38;10.13;;;6.00;;
20084;SDS011;10202;48.474;9.138;2024-01-30T04:54:05;9.27;;;5.00;;
20084;SDS011;10202;48.474;9.138;2024-01-30T04:56:31;7.87;;;5.13;;
20084;SDS011;10202;48.474;9.138;2024-01-30T04:58:59;10.03;;;6.13;;
20084;SDS011;10202;48.474;9.138;2024-01-30T05:01:30;8.03;;;5.03;;
20084;SDS011;10202;48.474;9.138;2024-01-30T05:03:55;9.10;;;5.87;;
20084;SDS011;10202;48.474;9.138;2024-01-30T05:06:27;14.97;;;7.60;;
20084;SDS011;10202;48.474;9.138;2024-01-30T05:08:57;16.20;;;7.57;;
20084;SDS011;10202;48.474;9.138;2024-01-30T05:11:25;11.17;;;6.50;;
20084;SDS011;10202;48.474;9.138;2024-01-30T05:13:52;10.70;;;6.17;;
20084;SDS011;10202;48.474;9.138;2024-01-30T05:16:18;8.07;;;4.87;;
20084;SDS011;10202;48.474;9.138;2024-01-30T05:18:47;11.90;;;6.53;;
20084;SDS011;10202;48.474;9.138;2024-01-30T05:21:15;9.50;;;6.13;;
20084;SDS011;10202;48.474;9.138;2024-01-30T05:23:41;9.10;;;5.53;;
20084;SDS011;10202;48.474;9.138;2024-01-30T05:26:09;8.63;;;5.50;;
20084;SDS011;10202;48.474;9.138;2024-01-30T05:28:37;9.47;;;6.07;;
20084;SDS011;10202;48.474;9.138;2024-01-30T05:31:07;11.60;;;6.87;;
20084;SDS011;10202;48.474;9.138;2024-01-30T05:33:41;8.47;;;5.60;;
20084;SDS011;10202;48.474;9.138;2024-01-30T05:36:06;6.20;;;4.40;;
20084;SDS011;10202;48.474;9.138;2024-01-30T05:38:32;6.57;;;4.70;;
20084;SDS011;10202;48.474;9.138;2024-01-30T05:40:58;7.37;;;4.20;;
20084;SDS011;10202;48.474;9.138;2024-01-30T05:43:24;7.93;;;4.60;;
20084;SDS011;10202;48.474;9.138;2024-01-30T05:45:55;6.37;;;4.17;;
20084;SDS011;10202;48.474;9.138;2024-01-30T05:48:28;6.87;;;4.13;;
20084;SDS011;10202;48.474;9.138;2024-01-30T05:50:53;9.10;;;4.93;;
20084;SDS011;10202;48.474;9.138;2024-01-30T05:53:24;8.47;;;4.50;;
20084;SDS011;10202;48.474;9.138;2024-01-30T05:55:49;9.53;;;5.10;;
20084;SDS011;10202;48.474;9.138;2024-01-30T05:58:19;10.13;;;5.90;;
20084;SDS011;10202;48.474;9.138;2024-01-30T06:00:48;16.47;;;7.60;;
20084;SDS011;10202;48.474;9.138;2024-01-30T06:03:15;15.53;;;7.93;;
20084;SDS011;10202;48.474;9.138;2024-01-30T06:05:43;13.63;;;6.50;;
20084;SDS011;10202;48.474;9.138;2024-01-30T06:08:11;17.10;;;6.47;;
20084;SDS011;10202;48.474;9.138;2024-01-30T06:10:40;20.13;;;6.13;;
20084;SDS011;10202;48.474;9.138;2024-01-30T06:13:06;19.27;;;6.23;;
20084;SDS011;10202;48.474;9.138;2024-01-30T06:15:34;8.60;;;4.93;;
20084;SDS011;10202;48.474;9.138;2024-01-30T06:18:04;9.13;;;4.93;;
20084;SDS011;10202;48.474;9.138;2024-01-30T06:20:30;7.33;;;4.47;;
20084;SDS011;10202;48.474;9.138;2024-01-30T06:22:55;6.23;;;4.10;;
20084;SDS011;10202;48.474;9.138;2024-01-30T06:25:21;27.63;;;10.63;;
20084;SDS011;10202;48.474;9.138;2024-01-30T06:27:48;46.67;;;15.87;;
20084;SDS011;10202;48.474;9.138;2024-01-30T06:30:19;25.13;;;8.03;;
20084;SDS011;10202;48.474;9.138;2024-01-30T06:32:44;12.13;;;5.93;;
20084;SDS011;10202;48.474;9.138;2024-01-30T06:35:12;12.53;;;5.37;;
20084;SDS011;10202;48.474;9.138;2024-01-30T06:37:39;9.90;;;5.43;;
20084;SDS011;10202;48.474;9.138;2024-01-30T06:40:07;15.47;;;8.67;;
20084;SDS011;10202;48.474;9.138;2024-01-30T06:42:39;9.40;;;6.50;;
20084;SDS011;10202;48.474;9.138;2024-01-30T06:45:04;13.50;;;7.00;;
20084;SDS011;10202;48.474;9.138;2024-01-30T06:47:35;7.93;;;5.57;;
20084;SDS011;10202;48.474;9.138;2024-01-30T06:50:03;10.80;;;5.07;;
20084;SDS011;10202;48.474;9.138;2024-01-30T06:52:34;9.13;;;5.43;;
20084;SDS011;10202;48.474;9.138;2024-01-30T06:54:59;13.63;;;7.47;;
20084;SDS011;10202;48.474;9.138;2024-01-30T06:57:32;16.07;;;8.07;;
20084;SDS011;10202;48.474;9.138;2024-01-30T07:00:00;10.77;;;6.50;;
20084;SDS011;10202;48.474;9.138;2024-01-30T07:02:28;7.53;;;4.50;;
20084;SDS011;10202;48.474;9.138;2024-01-30T07:04:54;12.90;;;5.77;;
20084;SDS011;10202;48.474;9.138;2024-01-30T07:07:22;11.03;;;6.10;;
20084;SDS011;10202;48.474;9.138;2024-01-30T07:09:50;10.00;;;5.63;;
20084;SDS011;10202;48.474;9.138;2024-01-30T07:12:23;8.10;;;4.90;;
20084;SDS011;10202;48.474;9.138;2024-01-30T07:14:51;9.60;;;5.00;;
20084;SDS011;10202;48.474;9.138;2024-01-30T07:17:21;7.83;;;4.70;;
20084;SDS011;10202;48.474;9.138;2024-01-30T07:19:46;8.17;;;5.33;;
20084;SDS011;10202;48.474;9.138;2024-01-30T07:22:14;8.03;;;4.87;;
20084;SDS011;10202;48.474;9.138;2024-01-30T07:24:45;6.43;;;4.27;;
20084;SDS011;10202;48.474;9.138;2024-01-30T07:27:16;7.17;;;4.23;;
20084;SDS011;10202;48.474;9.138;2024-01-30T07:29:45;7.87;;;4.17;;
20084;SDS011;10202;48.474;9.138;2024-01-30T07:32:13;5.67;;;4.20;;
20084;SDS011;10202;48.474;9.138;2024-01-30T07:34:39;6.63;;;4.20;;
20084;SDS011;10202;48.474;9.138;2024-01-30T07:37:07;6.17;;;4.27;;
20084;SDS011;10202;48.474;9.138;2024-01-30T07:39:34;6.17;;;4.10;;
20084;SDS011;10202;48.474;9.138;2024-01-30T07:42:00;7.33;;;4.43;;
20084;SDS011;10202;48.474;9.138;2024-01-30T07:44:25;8.57;;;4.30;;
20084;SDS011;10202;48.474;9.138;2024-01-30T07:46:51;10.40;;;5.33;;
20084;SDS011;10202;48.474;9.138;2024-01-30T07:49:22;6.90;;;4.43;;
20084;SDS011;10202;48.474;9.138;2024-01-30T07:51:47;9.40;;;4.50;;
20084;SDS011;10202;48.474;9.138;2024-01-30T07:54:15;8.53;;;4.97;;
20084;SDS011;10202;48.474;9.138;2024-01-30T07:56:46;9.65;;;4.85;;
20084;SDS011;10202;48.474;9.138;2024-01-30T07:59:11;7.37;;;4.43;;
20084;SDS011;10202;48.474;9.138;2024-01-30T08:01:37;9.47;;;4.77;;
20084;SDS011;10202;48.474;9.138;2024-01-30T08:04:05;8.10;;;4.40;;
20084;SDS011;10202;48.474;9.138;2024-01-30T08:06:33;8.10;;;4.97;;
20084;SDS011;10202;48.474;9.138;2024-01-30T08:08:59;8.17;;;4.87;;
20084;SDS011;10202;48.474;9.138;2024-01-30T08:11:24;8.60;;;4.93;;
20084;SDS011;10202;48.474;9.138;2024-01-30T08:13:55;8.20;;;5.30;;
20084;SDS011;10202;48.474;9.138;2024-01-30T08:16:23;8.60;;;5.47;;
20084;SDS011;10202;48.474;9.138;2024-01-30T08:18:53;8.30;;;5.10;;
20084;SDS011;10202;48.474;9.138;2024-01-30T08:21:22;11.27;;;5.17;;
20084;SDS011;10202;48.474;9.138;2024-01-30T08:23:50;9.53;;;5.63;;
20084;SDS011;10202;48.474;9.138;2024-01-30T08:26:20;10.20;;;5.03;;
20084;SDS011;10202;48.474;9.138;2024-01-30T08:28:48;10.37;;;5.33;;
20084;SDS011;10202;48.474;9.138;2024-01-30T08:31:15;7.30;;;4.93;;
20084;SDS011;10202;48.474;9.138;2024-01-30T08:33:40;8.17;;;5.00;;
20084;SDS011;10202;48.474;9.138;2024-01-30T08:36:11;15.70;;;9.17;;
20084;SDS011;10202;48.474;9.138;2024-01-30T08:38:36;14.63;;;8.93;;
20084;SDS011;10202;48.474;9.138;2024-01-30T08:41:04;11.40;;;7.60;;
20084;SDS011;10202;48.474;9.138;2024-01-30T08:43:32;12.93;;;6.37;;
20084;SDS011;10202;48.474;9.138;2024-01-30T08:46:00;8.47;;;5.23;;
20084;SDS011;10202;48.474;9.138;2024-01-30T08:48:26;8.03;;;4.73;;
20084;SDS011;10202;48.474;9.138;2024-01-30T08:50:56;6.37;;;4.30;;
20084;SDS011;10202;48.474;9.138;2024-01-30T08:53:22;10.23;;;4.63;;
20084;SDS011;10202;48.474;9.138;2024-01-30T08:55:47;7.43;;;4.53;;
20084;SDS011;10202;48.474;9.138;2024-01-30T08:58:13;7.93;;;4.50;;
20084;SDS011;10202;48.474;9.138;2024-01-30T09:00:38;8.13;;;4.53;;
20084;SDS011;10202;48.474;9.138;2024-01-30T09:03:09;6.50;;;4.40;;
20084;SDS011;10202;48.474;9.138;2024-01-30T09:05:34;8.13;;;5.07;;
20084;SDS011;10202;48.474;9.138;2024-01-30T09:08:05;8.90;;;4.80;;
20084;SDS011;10202;48.474;9.138;2024-01-30T09:10:32;8.27;;;5.23;;
20084;SDS011;10202;48.474;9.138;2024-01-30T09:12:58;8.17;;;5.43;;
20084;SDS011;10202;48.474;9.138;2024-01-30T09:15:26;9.27;;;5.83;;
20084;SDS011;10202;48.474;9.138;2024-01-30T09:17:51;11.50;;;6.40;;
20084;SDS011;10202;48.474;9.138;2024-01-30T09:20:19;11.90;;;6.10;;
20084;SDS011;10202;48.474;9.138;2024-01-30T09:22:52;9.50;;;5.97;;
20084;SDS011;10202;48.474;9.138;2024-01-30T09:25:17;9.60;;;6.00;;
20084;SDS011;10202;48.474;9.138;2024-01-30T09:27:45;16.90;;;5.63;;
20084;SDS011;10202;48.474;9.138;2024-01-30T09:30:17;8.27;;;5.22;;
20084;SDS011;10202;48.474;9.138;2024-01-30T09:32:42;8.73;;;4.97;;
20084;SDS011;10202;48.474;9.138;2024-01-30T09:35:13;10.52;;;5.13;;
20084;SDS011;10202;48.474;9.138;2024-01-30T09:37:38;9.88;;;5.18;;
20084;SDS011;10202;48.474;9.138;2024-01-30T09:40:09;6.72;;;5.15;;
20084;SDS011;10202;48.474;9.138;2024-01-30T09:42:38;8.73;;;5.07;;
20084;SDS011;10202;48.474;9.138;2024-01-30T09:45:07;9.40;;;5.18;;
20084;SDS011;10202;48.474;9.138;2024-01-30T09:47:45;13.25;;;6.65;;
20084;SDS011;10202;48.474;9.138;2024-01-30T09:50:12;11.35;;;6.22;;
20084;SDS011;10202;48.474;9.138;2024-01-30T09:52:39;11.32;;;6.43;;
20084;SDS011;10202;48.474;9.138;2024-01-30T09:55:06;13.40;;;7.43;;
20084;SDS011;10202;48.474;9.138;2024-01-30T09:57:35;15.88;;;7.10;;
20084;SDS011;10202;48.474;9.138;2024-01-30T10:00:03;11.13;;;6.53;;
20084;SDS011;10202;48.474;9.138;2024-01-30T10:02:39;11.85;;;6.43;;
20084;SDS011;10202;48.474;9.138;2024-01-30T10:05:05;10.90;;;6.38;;
20084;SDS011;10202;48.474;9.138;2024-01-30T10:07:32;12.02;;;5.88;;
20084;SDS011;10202;48.474;9.138;2024-01-30T10:10:04;9.82;;;5.78;;
20084;SDS011;10202;48.474;9.138;2024-01-30T10:12:33;10.18;;;5.78;;
20084;SDS011;10202;48.474;9.138;2024-01-30T10:15:06;9.55;;;6.10;;
20084;SDS011;10202;48.474;9.138;2024-01-30T10:17:33;9.70;;;5.85;;
20084;SDS011;10202;48.474;9.138;2024-01-30T10:19:58;11.85;;;7.30;;
20084;SDS011;10202;48.474;9.138;2024-01-30T10:22:30;11.60;;;6.97;;
20084;SDS011;10202;48.474;9.138;2024-01-30T10:25:00;10.07;;;5.93;;
20084;SDS011;10202;48.474;9.138;2024-01-30T10:27:28;10.18;;;6.18;;
20084;SDS011;10202;48.474;9.138;2024-01-30T10:29:58;11.82;;;6.85;;
20084;SDS011;10202;48.474;9.138;2024-01-30T10:32:23;12.43;;;7.28;;
20084;SDS011;10202;48.474;9.138;2024-01-30T10:34:52;16.15;;;6.57;;
20084;SDS011;10202;48.474;9.138;2024-01-30T10:37:18;11.68;;;6.22;;
20084;SDS011;10202;48.474;9.138;2024-01-30T10:39:50;11.35;;;6.10;;
20084;SDS011;10202;48.474;9.138;2024-01-30T10:42:20;10.85;;;6.53;;
20084;SDS011;10202;48.474;9.138;2024-01-30T10:45:00;10.93;;;6.18;;
20084;SDS011;10202;48.474;9.138;2024-01-30T10:47:36;9.95;;;5.88;;
20084;SDS011;10202;48.474;9.138;2024-01-30T10:50:09;10.98;;;6.03;;
20084;SDS011;10202;48.474;9.138;2024-01-30T10:52:39;14.43;;;6.50;;
20084;SDS011;10202;48.474;9.138;2024-01-30T10:55:05;10.80;;;5.63;;
20084;SDS011;10202;48.474;9.138;2024-01-30T10:57:35;12.48;;;5.50;;
20084;SDS011;10202;48.474;9.138;2024-01-30T11:00:04;13.63;;;6.07;;
20084;SDS011;10202;48.474;9.138;2024-01-30T11:02:42;8.50;;;4.90;;
20084;SDS011;10202;48.474;9.138;2024-01-30T11:05:10;8.93;;;4.90;;
20084;SDS011;10202;48.474;9.138;2024-01-30T11:07:38;5.05;;;3.70;;
20084;SDS011;10202;48.474;9.138;2024-01-30T11:10:08;6.80;;;3.80;;
20084;SDS011;10202;48.474;9.138;2024-01-30T11:12:40;6.25;;;3.60;;
20084;SDS011;10202;48.474;9.138;2024-01-30T11:20:19;8.60;;;4.72;;
20084;SDS011;10202;48.474;9.138;2024-01-30T11:22:51;7.82;;;3.80;;
20084;SDS011;10202;48.474;9.138;2024-01-30T11:25:24;5.75;;;3.42;;
20084;SDS011;10202;48.474;9.138;2024-01-30T11:27:53;6.55;;;4.40;;
20084;SDS011;10202;48.474;9.138;2024-01-30T11:35:32;4.60;;;3.05;;
20084;SDS011;10202;48.474;9.138;2024-01-30T11:38:04;4.47;;;2.95;;
20084;SDS011;10202;48.474;9.138;2024-01-30T11:40:31;7.47;;;3.35;;
20084;SDS011;10202;48.474;9.138;2024-01-30T11:42:58;6.18;;;3.63;;
20084;SDS011;10202;48.474;9.138;2024-01-30T11:45:32;5.80;;;3.75;;
20084;SDS011;10202;48.474;9.138;2024-01-30T11:48:04;5.80;;;3.20;;
20084;SDS011;10202;48.474;9.138;2024-01-30T11:50:35;5.32;;;3.20;;
20084;SDS011;10202;48.474;9.138;2024-01-30T11:53:06;5.80;;;3.10;;
20084;SDS011;10202;48.474;9.138;2024-01-30T11:55:31;6.75;;;3.80;;
20084;SDS011;10202;48.474;9.138;2024-01-30T11:57:57;13.77;;;6.57;;
20084;SDS011;10202;48.474;9.138;2024-01-30T12:00:28;11.32;;;4.95;;
20084;SDS011;10202;48.474;9.138;2024-01-30T12:02:58;10.45;;;4.60;;
20084;SDS011;10202;48.474;9.138;2024-01-30T12:05:27;6.97;;;4.20;;
20084;SDS011;10202;48.474;9.138;2024-01-30T12:07:55;5.28;;;3.40;;
20084;SDS011;10202;48.474;9.138;2024-01-30T12:10:26;8.70;;;3.58;;
20084;SDS011;10202;48.474;9.138;2024-01-30T12:12:56;3.05;;;2.65;;
20084;SDS011;10202;48.474;9.138;2024-01-30T12:15:22;4.25;;;3.33;;
20084;SDS011;10202;48.474;9.138;2024-01-30T12:17:50;5.30;;;3.38;;
20084;SDS011;10202;48.474;9.138;2024-01-30T12:20:19;8.77;;;3.25;;
20084;SDS011;10202;48.474;9.138;2024-01-30T12:22:47;4.95;;;3.20;;
20084;SDS011;10202;48.474;9.138;2024-01-30T12:25:16;5.05;;;3.00;;
20084;SDS011;10202;48.474;9.138;2024-01-30T12:27:47;5.05;;;3.30;;
20084;SDS011;10202;48.474;9.138;2024-01-30T12:30:19;5.30;;;3.15;;
20084;SDS011;10202;48.474;9.138;2024-01-30T12:32:46;3.60;;;2.63;;
20084;SDS011;10202;48.474;9.138;2024-01-30T12:35:15;4.35;;;2.85;;
20084;SDS011;10202;48.474;9.138;2024-01-30T12:37:44;4.93;;;3.00;;
20084;SDS011;10202;48.474;9.138;2024-01-30T12:40:14;3.75;;;2.97;;
20084;SDS011;10202;48.474;9.138;2024-01-30T12:42:40;4.30;;;2.72;;
20084;SDS011;10202;48.474;9.138;2024-01-30T12:45:08;8.90;;;2.78;;
20084;SDS011;10202;48.474;9.138;2024-01-30T12:47:36;4.75;;;3.00;;
20084;SDS011;10202;48.474;9.138;2024-01-30T12:50:02;3.45;;;2.65;;
20084;SDS011;10202;48.474;9.138;2024-01-30T12:52:31;6.75;;;2.75;;
20084;SDS011;10202;48.474;9.138;2024-01-30T12:54:56;4.57;;;2.60;;
20084;SDS011;10202;48.474;9.138;2024-01-30T12:57:24;3.38;;;2.45;;
20084;SDS011;10202;48.474;9.138;2024-01-30T12:59:50;4.95;;;2.50;;
20084;SDS011;10202;48.474;9.138;2024-01-30T13:02:16;5.30;;;2.63;;
20084;SDS011;10202;48.474;9.138;2024-01-30T13:04:41;4.80;;;2.88;;
20084;SDS011;10202;48.474;9.138;2024-01-30T13:07:10;7.65;;;3.67;;
20084;SDS011;10202;48.474;9.138;2024-01-30T13:09:38;5.85;;;3.55;;
20084;SDS011;10202;48.474;9.138;2024-01-30T13:12:06;6.70;;;3.15;;
20084;SDS011;10202;48.474;9.138;2024-01-30T13:14:32;3.55;;;2.58;;
20084;SDS011;10202;48.474;9.138;2024-01-30T13:17:00;6.75;;;3.30;;
20084;SDS011;10202;48.474;9.138;2024-01-30T13:19:25;4.53;;;3.17;;
20084;SDS011;10202;48.474;9.138;2024-01-30T13:21:53;11.07;;;5.85;;
20084;SDS011;10202;48.474;9.138;2024-01-30T13:24:21;6.95;;;3.92;;
20084;SDS011;10202;48.474;9.138;2024-01-30T13:26:47;9.25;;;5.55;;
20084;SDS011;10202;48.474;9.138;2024-01-30T13:29:16;5.68;;;3.70;;
20084;SDS011;10202;48.474;9.138;2024-01-30T13:31:44;5.05;;;3.10;;
20084;SDS011;10202;48.474;9.138;2024-01-30T13:34:15;7.95;;;4.32;;
20084;SDS011;10202;48.474;9.138;2024-01-30T13:36:43;6.40;;;3.92;;
20084;SDS011;10202;48.474;9.138;2024-01-30T13:39:13;11.57;;;5.30;;
20084;SDS011;10202;48.474;9.138;2024-01-30T13:41:41;9.70;;;4.20;;
20084;SDS011;10202;48.474;9.138;2024-01-30T13:44:07;6.47;;;3.03;;
20084;SDS011;10202;48.474;9.138;2024-01-30T13:46:35;3.63;;;2.90;;
20084;SDS011;10202;48.474;9.138;2024-01-30T13:49:03;4.80;;;3.03;;
20084;SDS011;10202;48.474;9.138;2024-01-30T13:51:31;4.97;;;2.92;;
20084;SDS011;10202;48.474;9.138;2024-01-30T13:53:57;5.15;;;2.72;;
20084;SDS011;10202;48.474;9.138;2024-01-30T13:56:25;6.45;;;2.70;;
20084;SDS011;10202;48.474;9.138;2024-01-30T13:58:52;3.35;;;2.45;;
20084;SDS011;10202;48.474;9.138;2024-01-30T14:01:26;3.53;;;2.50;;
20084;SDS011;10202;48.474;9.138;2024-01-30T14:03:57;3.65;;;2.40;;
20084;SDS011;10202;48.474;9.138;2024-01-30T14:06:22;3.25;;;2.55;;
20084;SDS011;10202;48.474;9.138;2024-01-30T14:08:53;4.82;;;2.38;;
20084;SDS011;10202;48.474;9.138;2024-01-30T14:11:23;5.07;;;2.50;;
20084;SDS011;10202;48.474;9.138;2024-01-30T14:13:49;3.72;;;2.28;;
20084;SDS011;10202;48.474;9.138;2024-01-30T14:16:17;4.05;;;2.60;;
20084;SDS011;10202;48.474;9.138;2024-01-30T14:18:45;3.65;;;2.65;;
20084;SDS011;10202;48.474;9.138;2024-01-30T14:21:13;3.65;;;2.67;;
20084;SDS011;10202;48.474;9.138;2024-01-30T14:23:41;4.53;;;2.65;;
20084;SDS011;10202;48.474;9.138;2024-01-30T14:26:07;7.82;;;2.75;;
20084;SDS011;10202;48.474;9.138;2024-01-30T14:28:34;5.28;;;2.40;;
20084;SDS011;10202;48.474;9.138;2024-01-30T14:31:00;4.07;;;2.70;;
20084;SDS011;10202;48.474;9.138;2024-01-30T14:33:28;3.42;;;2.67;;
20084;SDS011;10202;48.474;9.138;2024-01-30T14:35:59;3.70;;;2.42;;
20084;SDS011;10202;48.474;9.138;2024-01-30T14:38:27;4.50;;;2.90;;
20084;SDS011;10202;48.474;9.138;2024-01-30T14:40:53;3.03;;;2.40;;
20084;SDS011;10202;48.474;9.138;2024-01-30T14:43:22;3.67;;;2.30;;
20084;SDS011;10202;48.474;9.138;2024-01-30T14:45:52;6.32;;;3.10;;
20084;SDS011;10202;48.474;9.138;2024-01-30T14:48:20;7.25;;;3.10;;
20084;SDS011;10202;48.474;9.138;2024-01-30T14:50:52;4.60;;;2.78;;
20084;SDS011;10202;48.474;9.138;2024-01-30T14:53:18;5.80;;;3.03;;
20084;SDS011;10202;48.474;9.138;2024-01-30T14:55:46;5.30;;;3.38;;
20084;SDS011;10202;48.474;9.138;2024-01-30T14:58:13;8.25;;;3.00;;